Time;durP1;ratioP1;P1;durP2;ratioP2;P2;SDS_P1;SDS_P2;PMS_P1;PMS_P2;Temp;Humidity;BMP_temperature;BMP_pressure;BME280_temperature;BME280_humidity;BME280_pressure;Samples;Min_cycle;Max_cycle;Signal;HPM_P1;HPM_P2
2022/03/26 00:02:10;;;;;;;83.53;33.95;;;;;;;4.64;73.08;100511.41;5079119;28;20063;-60
2022/03/26 00:04:41;;;;;;;67.40;30.55;;;;;;;4.77;72.65;100502.06;5078946;28;20114;-60
2022/03/26 00:07:11;;;;;;;81.30;33.65;;;;;;;5.03;72.42;100510.09;5090023;28;20056;-61
2022/03/26 00:09:44;;;;;;;50.45;22.63;;;;;;;5.25;71.66;100511.16;5095211;28;20094;-61
2022/03/26 00:12:15;;;;;;;55.85;24.48;;;;;;;5.44;70.80;100496.63;5087492;28;20573;-61
2022/03/26 00:14:45;;;;;;;62.13;29.02;;;;;;;5.60;70.32;100503.69;5081665;28;20048;-61
2022/03/26 00:17:16;;;;;;;57.47;26.27;;;;;;;5.46;69.53;100455.19;5078442;28;20044;-61
2022/03/26 00:19:47;;;;;;;51.92;25.77;;;;;;;5.77;69.20;100479.63;5078386;28;20052;-61
2022/03/26 00:22:17;;;;;;;87.03;37.03;;;;;;;5.82;68.59;100467.56;5090185;28;20213;-61
2022/03/26 00:24:49;;;;;;;64.40;28.40;;;;;;;6.12;68.44;100498.03;5098406;28;20063;-60
2022/03/26 00:27:20;;;;;;;62.42;29.40;;;;;;;6.16;68.33;100509.28;5094935;28;20320;-61
2022/03/26 00:29:51;;;;;;;47.60;24.10;;;;;;;6.20;67.93;100500.66;5098568;28;20060;-61
2022/03/26 00:32:22;;;;;;;54.85;26.77;;;;;;;6.26;67.70;100511.06;5096732;28;20135;-61
2022/03/26 00:34:52;;;;;;;43.13;21.83;;;;;;;6.27;67.56;100497.25;5081238;28;20430;-60
2022/03/26 00:37:23;;;;;;;57.17;26.15;;;;;;;6.28;67.34;100504.16;5094438;28;20285;-61
2022/03/26 00:39:56;;;;;;;48.25;24.10;;;;;;;5.93;67.08;100434.75;5098568;28;20070;-61
2022/03/26 00:42:26;;;;;;;41.30;21.63;;;;;;;6.31;67.07;100488.59;5098309;28;20052;-61
2022/03/26 00:44:57;;;;;;;40.83;21.95;;;;;;;6.37;66.88;100491.22;5098773;28;20286;-61
2022/03/26 00:47:28;;;;;;;37.00;20.55;;;;;;;6.33;66.50;100460.91;5091210;28;20052;-61
2022/03/26 00:49:59;;;;;;;40.38;21.58;;;;;;;6.56;66.38;100473.13;5078211;28;20040;-60
2022/03/26 00:52:30;;;;;;;36.55;20.63;;;;;;;6.60;65.96;100474.88;5081532;28;20050;-61
2022/03/26 00:55:02;;;;;;;35.35;19.20;;;;;;;6.78;65.71;100485.28;5098496;28;20044;-61
2022/03/26 00:57:33;;;;;;;35.92;18.42;;;;;;;6.90;65.25;100480.13;5098168;28;20122;-61
2022/03/26 01:00:04;;;;;;;84.38;30.73;;;;;;;6.95;65.16;100481.88;5096739;28;20260;-61
2022/03/26 01:02:35;;;;;;;67.93;28.98;;;;;;;6.77;64.76;100442.03;5085664;28;20056;-62
2022/03/26 01:05:07;;;;;;;39.38;20.35;;;;;;;7.11;64.55;100488.81;5088031;28;20062;-62
2022/03/26 01:07:37;;;;;;;32.97;18.75;;;;;;;7.23;64.28;100475.84;5084856;28;20258;-63
2022/03/26 01:10:10;;;;;;;39.83;19.73;;;;;;;7.19;63.95;100471.53;5087091;28;20411;-61
2022/03/26 01:12:41;;;;;;;41.10;21.02;;;;;;;7.40;63.42;100475.00;5077907;28;20083;-62
2022/03/26 01:15:12;;;;;;;42.03;18.75;;;;;;;7.41;63.49;100479.31;5077624;28;20112;-61
2022/03/26 01:17:43;;;;;;;33.10;17.58;;;;;;;7.46;63.21;100481.06;5078221;28;20065;-62
2022/03/26 01:20:13;;;;;;;34.40;19.23;;;;;;;7.32;63.30;100485.41;5086299;28;20052;-63
2022/03/26 01:22:44;;;;;;;31.33;17.45;;;;;;;7.25;63.47;100481.91;5097734;28;20056;-61
2022/03/26 01:25:16;;;;;;;32.00;18.25;;;;;;;6.96;63.79;100436.84;5097736;28;20075;-62
2022/03/26 01:27:47;;;;;;;33.10;17.83;;;;;;;6.96;64.25;100483.59;5097204;28;20056;-62
2022/03/26 01:30:18;;;;;;;36.05;18.88;;;;;;;6.55;64.96;100474.00;5097709;28;20064;-62
2022/03/26 01:32:49;;;;;;;37.17;19.13;;;;;;;6.26;65.55;100480.81;5097872;28;20361;-62
2022/03/26 01:35:19;;;;;;;41.95;21.67;;;;;;;5.98;66.28;100474.59;5097781;28;20051;-62
2022/03/26 01:37:50;;;;;;;51.85;23.33;;;;;;;5.78;67.35;100461.47;5097749;28;20086;-62
2022/03/26 01:40:23;;;;;;;49.47;23.10;;;;;;;5.78;68.08;100460.59;5097572;28;20052;-62
2022/03/26 01:42:53;;;;;;;43.05;23.23;;;;;;;5.75;68.12;100461.44;5097635;28;20326;-62
2022/03/26 01:45:24;;;;;;;56.10;28.90;;;;;;;5.70;68.55;100451.91;5098012;28;20398;-63
2022/03/26 01:47:55;;;;;;;57.83;29.55;;;;;;;5.63;69.03;100449.25;5101721;28;20678;-63
2022/03/26 01:50:27;;;;;;;69.68;34.75;;;;;;;5.57;69.55;100451.84;5101748;28;20064;-62
2022/03/26 01:52:58;;;;;;;69.43;34.10;;;;;;;5.43;69.79;100453.44;5101618;28;20048;-62
2022/03/26 01:55:30;;;;;;;51.25;27.45;;;;;;;5.33;69.82;100436.09;5101969;28;20044;-62
2022/03/26 01:58:02;;;;;;;53.33;29.80;;;;;;;5.43;70.32;100450.84;5102058;28;20055;-62
2022/03/26 02:00:34;;;;;;;62.45;29.13;;;;;;;5.45;70.27;100446.56;5101907;28;20294;-62
2022/03/26 02:03:07;;;;;;;51.15;27.35;;;;;;;5.39;70.22;100421.47;5101915;28;20087;-62
2022/03/26 02:05:38;;;;;;;56.58;29.08;;;;;;;5.51;70.22;100436.22;5101581;28;20079;-62
2022/03/26 02:08:09;;;;;;;46.55;26.13;;;;;;;5.52;70.52;100432.78;5101421;28;20267;-62
2022/03/26 02:10:41;;;;;;;44.67;25.95;;;;;;;5.50;70.55;100421.53;5101286;28;20060;-62
2022/03/26 02:13:12;;;;;;;40.65;23.80;;;;;;;5.48;70.32;100420.66;5101756;28;20056;-62
2022/03/26 02:15:42;;;;;;;39.72;22.73;;;;;;;5.44;70.44;100412.84;5101506;28;20062;-62
2022/03/26 02:18:13;;;;;;;42.20;23.42;;;;;;;5.48;70.65;100399.06;5101072;28;20090;-62
2022/03/26 02:20:47;;;;;;;40.78;23.00;;;;;;;5.07;70.52;100314.16;5101166;28;20283;-62
2022/03/26 02:23:18;;;;;;;37.50;22.42;;;;;;;5.70;70.17;100400.06;5101071;28;20055;-62
2022/03/26 02:25:49;;;;;;;41.70;23.05;;;;;;;5.78;69.79;100398.38;5101162;28;20063;-62
2022/03/26 02:28:19;;;;;;;46.63;23.67;;;;;;;5.83;69.59;100392.34;5101227;28;20058;-62
2022/03/26 02:30:50;;;;;;;42.65;23.70;;;;;;;5.82;69.37;100389.75;5100723;28;20343;-62
2022/03/26 02:33:21;;;;;;;43.70;23.42;;;;;;;5.82;69.45;100394.94;5099597;28;20091;-62
2022/03/26 02:35:54;;;;;;;43.95;23.15;;;;;;;5.82;69.45;100379.38;5095611;28;20066;-61
2022/03/26 02:38:26;;;;;;;41.67;22.95;;;;;;;5.90;69.54;100371.63;5099753;28;20051;-62
2022/03/26 02:40:56;;;;;;;48.30;22.17;;;;;;;5.96;69.70;100380.31;5099672;28;20052;-62
2022/03/26 02:43:27;;;;;;;44.67;22.27;;;;;;;5.93;69.27;100367.31;5097617;28;20318;-62
2022/03/26 02:45:58;;;;;;;51.40;23.70;;;;;;;6.01;69.30;100376.03;5099837;28;20056;-62
2022/03/26 02:48:29;;;;;;;39.22;21.95;;;;;;;6.05;69.47;100375.19;5099307;28;20052;-62
2022/03/26 02:51:01;;;;;;;43.03;22.08;;;;;;;5.81;69.30;100315.41;5099389;28;20047;-62
2022/03/26 02:53:32;;;;;;;39.35;20.13;;;;;;;6.09;69.91;100362.22;5099448;28;20086;-62
2022/03/26 02:56:02;;;;;;;40.28;20.80;;;;;;;6.11;69.81;100361.38;5097513;28;20074;-62
2022/03/26 02:58:33;;;;;;;46.83;21.67;;;;;;;6.05;69.66;100359.63;5096514;28;20341;-62
2022/03/26 03:01:04;;;;;;;39.90;20.13;;;;;;;6.00;70.21;100352.69;5096719;28;20063;-59
2022/03/26 03:03:35;;;;;;;41.20;21.70;;;;;;;5.96;70.11;100356.13;5099551;28;20080;-63
2022/03/26 03:06:07;;;;;;;43.60;21.95;;;;;;;5.89;70.63;100357.81;5097098;28;20044;-62
2022/03/26 03:08:38;;;;;;;46.00;21.52;;;;;;;5.76;71.06;100332.66;5099554;28;20976;-62
2022/03/26 03:11:09;;;;;;;41.28;20.77;;;;;;;5.91;70.78;100337.91;5097385;28;20044;-60
2022/03/26 03:13:40;;;;;;;43.75;21.20;;;;;;;5.90;71.28;100320.63;5096505;28;20051;-62
2022/03/26 03:16:11;;;;;;;45.13;20.10;;;;;;;5.95;71.15;100287.84;5091500;28;20255;-61
2022/03/26 03:18:41;;;;;;;41.40;20.58;;;;;;;6.17;70.81;100303.47;5094947;28;20106;-61
2022/03/26 03:21:18;;;;;;;46.88;20.70;;;;;;;6.16;70.65;100302.56;5095479;28;20245;-61
2022/03/26 03:23:49;;;;;;;38.85;18.70;;;;;;;6.23;70.43;100309.50;5096899;28;20052;-61
2022/03/26 03:26:20;;;;;;;39.60;18.98;;;;;;;6.15;70.27;100300.00;5098642;28;20040;-61
2022/03/26 03:28:51;;;;;;;44.72;18.88;;;;;;;6.30;70.43;100307.81;5099284;28;20183;-61
2022/03/26 03:31:21;;;;;;;95.97;43.85;;;;;;;6.29;70.58;100308.69;5099749;28;20083;-61
2022/03/26 03:33:52;;;;;;;73.18;32.03;;;;;;;6.34;70.47;100296.56;5098013;28;20115;-61
2022/03/26 03:36:24;;;;;;;51.47;25.38;;;;;;;6.38;70.40;100298.28;5093138;28;20120;-61
2022/03/26 03:38:55;;;;;;;35.15;17.48;;;;;;;6.37;69.96;100291.38;5096009;28;20383;-60
2022/03/26 03:41:26;;;;;;;35.47;15.27;;;;;;;6.23;70.27;100285.28;5094100;28;20043;-61
2022/03/26 03:43:56;;;;;;;40.83;17.48;;;;;;;5.89;70.82;100256.69;5094264;28;20246;-61
2022/03/26 03:46:27;;;;;;;52.47;22.92;;;;;;;5.90;71.05;100279.13;5098247;28;20379;-60
2022/03/26 03:48:58;;;;;;;39.45;17.75;;;;;;;5.81;71.15;100273.91;5098140;28;20055;-60
2022/03/26 03:51:30;;;;;;;34.80;16.75;;;;;;;5.75;71.94;100273.91;5097944;28;20423;-60
2022/03/26 03:54:01;;;;;;;61.83;24.40;;;;;;;5.74;71.70;100266.97;5098160;28;20047;-60
2022/03/26 03:56:32;;;;;;;33.90;16.48;;;;;;;5.71;72.18;100261.78;5097872;28;20051;-60
2022/03/26 03:59:02;;;;;;;35.42;17.50;;;;;;;5.84;72.36;100263.53;5098673;28;20095;-60
2022/03/26 04:01:33;;;;;;;34.50;17.25;;;;;;;5.68;72.32;100215.13;5093852;28;20343;-60
2022/03/26 04:04:04;;;;;;;37.15;16.63;;;;;;;5.78;72.29;100253.16;5095859;28;20059;-61
2022/03/26 04:06:37;;;;;;;37.13;17.13;;;;;;;5.73;72.66;100249.69;5098101;28;20056;-61
2022/03/26 04:09:08;;;;;;;32.95;17.00;;;;;;;5.68;72.99;100248.81;5095285;28;20059;-61
2022/03/26 04:11:38;;;;;;;33.70;16.45;;;;;;;5.65;73.20;100243.63;5097979;28;20079;-60
2022/03/26 04:14:09;;;;;;;34.45;17.48;;;;;;;5.55;73.04;100251.38;5097998;28;20047;-60
2022/03/26 04:16:40;;;;;;;37.45;18.70;;;;;;;5.34;73.42;100220.16;5098329;28;20044;-60
2022/03/26 04:19:12;;;;;;;44.92;20.13;;;;;;;5.50;73.14;100237.53;5098893;28;20292;-60
2022/03/26 04:21:44;;;;;;;41.60;19.38;;;;;;;5.61;73.45;100250.50;5098636;28;20048;-60
2022/03/26 04:24:16;;;;;;;47.42;21.52;;;;;;;5.51;73.15;100221.09;5098659;28;20356;-60
2022/03/26 04:26:52;;;;;;;41.45;19.45;;;;;;;5.61;73.06;100241.00;5098545;28;20048;-61
2022/03/26 04:29:23;;;;;;;42.45;19.83;;;;;;;5.60;73.03;100241.88;5098633;28;20350;-61
2022/03/26 04:31:54;;;;;;;40.63;21.60;;;;;;;5.67;73.07;100229.81;5098566;28;20250;-61
2022/03/26 04:34:24;;;;;;;48.13;22.20;;;;;;;5.68;72.80;100236.72;5098283;28;20064;-61
2022/03/26 04:36:57;;;;;;;47.88;20.13;;;;;;;5.63;73.17;100239.28;5098338;28;20058;-61
2022/03/26 04:39:28;;;;;;;50.92;24.10;;;;;;;5.44;73.06;100227.13;5078060;28;20045;-61
2022/03/26 04:41:58;;;;;;;63.65;27.90;;;;;;;5.32;73.45;100238.31;5078087;28;20052;-61
2022/03/26 04:44:29;;;;;;;55.88;29.15;;;;;;;5.23;73.67;100234.81;5078161;28;20358;-60
2022/03/26 04:46:59;;;;;;;62.85;22.33;;;;;;;5.17;74.27;100228.75;5077958;28;20254;-60
2022/03/26 04:49:31;;;;;;;45.35;18.13;;;;;;;5.06;74.04;100227.81;5077923;28;20353;-60
2022/03/26 04:52:03;;;;;;;44.92;16.55;;;;;;;4.59;74.49;100163.66;5078218;28;20116;-60
2022/03/26 04:54:34;;;;;;;62.15;16.15;;;;;;;4.62;74.58;100201.63;5085795;28;20385;-60
2022/03/26 04:57:05;;;;;;;46.65;17.10;;;;;;;4.52;75.63;100211.09;5097906;28;20385;-60
2022/03/26 04:59:35;;;;;;;58.70;17.35;;;;;;;4.43;75.57;100211.00;5097334;28;20047;-60
2022/03/26 05:02:06;;;;;;;50.25;18.35;;;;;;;4.42;76.33;100209.25;5096910;28;20051;-60
2022/03/26 05:04:37;;;;;;;82.47;20.42;;;;;;;4.36;76.59;100198.88;5097108;28;20315;-60
2022/03/26 05:09:54;;;;;;;39.70;18.55;;;;;;;4.46;76.65;100190.31;5093939;28;20078;-60
2022/03/26 05:12:24;;;;;;;69.13;19.73;;;;;;;4.52;76.40;100187.81;5096932;28;20058;-60
2022/03/26 05:14:55;;;;;;;52.33;20.70;;;;;;;4.53;76.18;100176.59;5096973;28;20107;-60
2022/03/26 05:17:26;;;;;;;50.30;19.48;;;;;;;4.57;76.41;100173.19;5096829;28;20052;-60
2022/03/26 05:19:57;;;;;;;36.38;19.55;;;;;;;4.52;76.19;100169.69;5096641;28;20118;-59
2022/03/26 05:22:29;;;;;;;56.25;20.30;;;;;;;4.56;76.19;100160.22;5096386;28;20334;-60
2022/03/26 05:25:00;;;;;;;83.43;20.67;;;;;;;4.41;76.17;100135.97;5096662;28;20067;-60
2022/03/26 05:27:31;;;;;;;70.72;22.85;;;;;;;4.52;76.15;100159.34;5094210;28;20394;-60
2022/03/26 05:30:02;;;;;;;49.47;21.33;;;;;;;4.47;75.98;100150.69;5096644;28;20104;-60
2022/03/26 05:32:34;;;;;;;56.97;21.67;;;;;;;4.36;76.51;100132.47;5094642;28;20044;-60
2022/03/26 05:35:11;;;;;;;48.55;22.15;;;;;;;4.25;76.73;100119.47;5097040;28;20381;-60
2022/03/26 05:37:44;;;;;;;69.90;22.02;;;;;;;4.29;76.82;100147.13;5097818;28;20335;-60
2022/03/26 05:40:17;;;;;;;53.67;22.83;;;;;;;4.30;77.09;100135.91;5097658;28;20338;-61
2022/03/26 05:42:48;;;;;;;54.47;21.92;;;;;;;4.41;76.95;100130.78;5097637;28;20048;-61
2022/03/26 05:45:19;;;;;;;49.30;21.67;;;;;;;4.19;76.61;100106.50;5097571;28;20044;-60
2022/03/26 05:47:51;;;;;;;50.63;22.35;;;;;;;4.28;76.62;100113.47;5097577;28;20055;-60
2022/03/26 05:50:22;;;;;;;59.28;22.95;;;;;;;4.15;76.62;100097.00;5097586;28;20060;-61
2022/03/26 05:52:54;;;;;;;51.25;21.50;;;;;;;4.20;76.86;100110.84;5097311;28;20101;-61
2022/03/26 05:55:25;;;;;;;44.15;20.88;;;;;;;4.18;76.97;100106.50;5097634;28;20354;-60
2022/03/26 05:57:56;;;;;;;53.30;23.55;;;;;;;4.18;76.98;100117.69;5085256;28;20044;-61
2022/03/26 06:00:26;;;;;;;58.63;28.85;;;;;;;4.18;77.13;100119.44;5077025;28;20083;-60
2022/03/26 06:02:57;;;;;;;53.03;25.33;;;;;;;4.11;77.54;100121.94;5076811;28;20125;-61
2022/03/26 06:05:28;;;;;;;48.97;21.98;;;;;;;4.04;77.71;100119.31;5077156;28;20049;-61
2022/03/26 06:08:00;;;;;;;45.05;22.33;;;;;;;3.98;77.51;100122.72;5077087;28;20048;-60
2022/03/26 06:10:31;;;;;;;41.35;22.02;;;;;;;3.88;77.76;100114.03;5077031;28;20079;-61
2022/03/26 06:13:01;;;;;;;42.63;20.33;;;;;;;3.85;78.20;100116.59;5076959;28;20060;-60
2022/03/26 06:15:34;;;;;;;42.50;20.88;;;;;;;3.84;77.98;100107.13;5076921;28;20370;-60
2022/03/26 06:18:13;;;;;;;40.60;19.00;;;;;;;3.37;78.05;100040.38;5074658;28;20060;-60
2022/03/26 06:20:44;;;;;;;35.85;18.17;;;;;;;3.76;78.49;100098.41;5077334;28;20112;-60
2022/03/26 06:23:16;;;;;;;39.53;19.00;;;;;;;3.71;78.24;100099.22;5076745;28;20052;-61
2022/03/26 06:25:47;;;;;;;42.10;20.20;;;;;;;3.67;78.57;100093.19;5076970;28;20056;-60
2022/03/26 06:28:19;;;;;;;42.65;19.48;;;;;;;3.62;79.36;100084.50;5077012;28;20090;-61
2022/03/26 06:30:50;;;;;;;38.22;22.02;;;;;;;3.57;79.08;100089.66;5076614;28;20136;-60
2022/03/26 06:33:22;;;;;;;43.00;22.17;;;;;;;3.51;79.21;100080.97;5078712;28;20055;-60
2022/03/26 06:35:53;;;;;;;44.22;20.80;;;;;;;3.53;79.55;100084.44;5080553;28;20254;-60
2022/03/26 06:38:28;;;;;;;45.13;20.60;;;;;;;3.49;79.33;100077.50;5080667;28;20056;-60
2022/03/26 06:40:59;;;;;;;35.97;19.40;;;;;;;3.46;79.70;100073.16;5080305;28;20049;-60
2022/03/26 06:43:30;;;;;;;40.80;19.58;;;;;;;3.42;79.71;100067.13;5080509;28;20063;-60
2022/03/26 06:46:00;;;;;;;35.90;18.30;;;;;;;3.41;79.73;100057.63;5080466;28;20056;-60
2022/03/26 06:48:31;;;;;;;37.70;19.13;;;;;;;3.30;79.77;100041.16;5080421;28;20262;-60
2022/03/26 06:51:03;;;;;;;39.42;17.85;;;;;;;3.34;79.73;100047.22;5080514;28;20110;-60
2022/03/26 06:53:36;;;;;;;30.20;17.02;;;;;;;3.26;79.69;100039.41;5080381;28;20048;-59
2022/03/26 06:56:08;;;;;;;26.88;14.77;;;;;;;3.07;79.92;100011.66;5080359;28;20123;-60
2022/03/26 06:58:39;;;;;;;28.52;14.20;;;;;;;3.13;80.00;100037.56;5080244;28;20095;-60
2022/03/26 07:01:09;;;;;;;27.83;14.05;;;;;;;3.03;80.08;100027.13;5080186;28;20065;-60
2022/03/26 07:03:40;;;;;;;21.08;12.13;;;;;;;2.89;80.06;100033.84;5080055;28;20057;-60
2022/03/26 07:06:12;;;;;;;25.92;12.75;;;;;;;2.81;80.29;100035.50;5079909;28;20056;-61
2022/03/26 07:08:44;;;;;;;26.90;12.40;;;;;;;2.77;80.49;100028.56;5080210;28;20049;-60
2022/03/26 07:11:16;;;;;;;27.63;12.27;;;;;;;2.74;81.09;100029.38;5080266;28;20059;-61
2022/03/26 07:13:46;;;;;;;26.88;13.93;;;;;;;2.76;80.86;100021.66;5080142;28;20080;-60
2022/03/26 07:16:17;;;;;;;24.45;13.60;;;;;;;2.73;80.84;100011.31;5079923;28;20071;-60
2022/03/26 07:18:48;;;;;;;22.27;12.68;;;;;;;2.69;81.23;100009.53;5079938;28;20084;-60
2022/03/26 07:21:19;;;;;;;20.85;12.43;;;;;;;2.71;81.03;100002.69;5079848;28;20071;-60
2022/03/26 07:23:51;;;;;;;24.95;12.52;;;;;;;2.71;81.02;99997.53;5079621;28;20056;-60
2022/03/26 07:26:23;;;;;;;21.58;12.20;;;;;;;2.64;81.10;99990.56;5078893;28;20048;-61
2022/03/26 07:28:55;;;;;;;25.20;13.55;;;;;;;2.22;81.40;99929.91;5079394;28;20302;-60
2022/03/26 07:31:26;;;;;;;21.02;13.48;;;;;;;2.46;81.60;99979.19;5079034;28;20052;-60
2022/03/26 07:33:57;;;;;;;27.13;14.35;;;;;;;2.43;81.51;99974.00;5079470;28;20056;-61
2022/03/26 07:36:27;;;;;;;23.60;13.45;;;;;;;2.41;81.74;99967.97;5079405;28;20115;-60
2022/03/26 07:39:00;;;;;;;23.75;13.38;;;;;;;2.43;82.05;99976.59;5079400;28;20231;-60
2022/03/26 07:41:31;;;;;;;25.17;13.43;;;;;;;2.39;82.00;99969.66;5079470;28;20076;-62
2022/03/26 07:44:02;;;;;;;29.15;14.48;;;;;;;2.34;82.39;99966.16;5079085;28;20347;-60
2022/03/26 07:46:33;;;;;;;30.00;14.20;;;;;;;2.45;82.57;99968.88;5079358;28;20379;-59
2022/03/26 07:49:05;;;;;;;26.65;13.57;;;;;;;2.46;82.28;99955.97;5079287;28;20048;-60
2022/03/26 07:51:35;;;;;;;27.73;14.52;;;;;;;2.62;82.37;99966.47;5079402;28;20080;-59
2022/03/26 07:54:08;;;;;;;22.27;12.90;;;;;;;2.54;81.94;99959.50;5079118;28;20207;-60
2022/03/26 07:56:38;;;;;;;25.10;14.15;;;;;;;2.51;81.67;99958.63;5079044;28;20086;-59
2022/03/26 07:59:09;;;;;;;25.48;13.43;;;;;;;2.51;81.71;99953.47;5079037;28;20216;-59
2022/03/26 08:01:40;;;;;;;23.05;12.93;;;;;;;2.47;82.03;99954.25;5078771;28;20078;-60
2022/03/26 08:04:11;;;;;;;22.38;13.25;;;;;;;2.50;81.93;99951.75;5078933;28;20049;-60
2022/03/26 08:06:42;;;;;;;23.90;14.50;;;;;;;2.60;81.99;99951.00;5079203;28;20083;-59
2022/03/26 08:09:14;;;;;;;23.45;12.15;;;;;;;2.67;81.73;99941.59;5078689;28;20324;-59
2022/03/26 08:11:45;;;;;;;19.98;11.98;;;;;;;2.66;81.44;99942.44;5078804;28;20052;-59
2022/03/26 08:14:16;;;;;;;20.00;11.60;;;;;;;2.73;81.47;99944.25;5078849;28;20064;-59
2022/03/26 08:16:47;;;;;;;20.33;11.90;;;;;;;2.75;81.08;99937.41;5079201;28;20102;-60
2022/03/26 08:19:18;;;;;;;20.88;11.80;;;;;;;2.72;80.97;99927.00;5078945;28;20381;-60
2022/03/26 08:21:49;;;;;;;18.42;10.50;;;;;;;2.65;80.90;99920.09;5078673;28;20293;-60
2022/03/26 08:24:21;;;;;;;17.98;11.73;;;;;;;2.34;81.03;99863.00;5078760;28;20056;-60
2022/03/26 08:26:53;;;;;;;23.58;15.40;;;;;;;2.61;80.75;99908.00;5078524;28;20107;-60
2022/03/26 08:29:23;;;;;;;21.08;12.73;;;;;;;2.52;81.38;99914.81;5078409;28;20060;-62
2022/03/26 08:31:54;;;;;;;21.20;13.57;;;;;;;2.54;81.39;99918.25;5078512;28;20064;-60
2022/03/26 08:34:25;;;;;;;21.60;12.88;;;;;;;2.55;81.51;99904.50;5078398;28;20185;-59
2022/03/26 08:36:55;;;;;;;17.77;11.10;;;;;;;2.46;81.37;99894.09;5077650;28;20048;-60
2022/03/26 08:39:28;;;;;;;20.80;11.55;;;;;;;2.34;81.52;99878.50;5075796;28;20157;-60
2022/03/26 08:41:58;;;;;;;17.70;10.80;;;;;;;2.36;81.96;99887.09;5068215;28;20269;-59
2022/03/26 08:44:29;;;;;;;17.55;10.70;;;;;;;2.35;82.15;99875.06;5075267;28;20075;-59
2022/03/26 08:47:02;;;;;;;16.45;10.63;;;;;;;2.39;82.53;99876.81;5068129;28;20102;-60
2022/03/26 08:49:33;;;;;;;17.75;11.23;;;;;;;2.43;82.36;99872.56;5065195;28;20045;-60
2022/03/26 08:52:05;;;;;;;17.90;10.68;;;;;;;2.44;82.22;99870.00;5057909;28;20057;-60
2022/03/26 08:54:37;;;;;;;18.55;11.18;;;;;;;2.44;82.28;99877.72;5058048;28;20044;-60
2022/03/26 08:57:08;;;;;;;14.15;9.02;;;;;;;2.50;82.18;99875.22;5057783;28;20049;-60
2022/03/26 08:59:39;;;;;;;15.23;9.65;;;;;;;2.48;82.12;99876.06;5066436;28;20048;-60
2022/03/26 09:02:09;;;;;;;15.98;10.32;;;;;;;2.45;82.24;99869.16;5071186;28;20055;-60
2022/03/26 09:04:41;;;;;;;16.08;10.07;;;;;;;2.36;82.19;99862.19;5061707;28;20060;-60
2022/03/26 09:07:11;;;;;;;18.35;10.35;;;;;;;2.40;82.24;99855.38;5076616;28;20097;-60
2022/03/26 09:09:44;;;;;;;16.45;9.90;;;;;;;2.40;82.21;99863.09;5077757;28;20397;-60
2022/03/26 09:12:17;;;;;;;17.58;10.50;;;;;;;2.42;82.03;99848.50;5077668;28;20270;-60
2022/03/26 09:14:47;;;;;;;15.52;10.15;;;;;;;2.42;82.01;99851.09;5071440;28;20073;-60
2022/03/26 09:17:18;;;;;;;15.63;10.30;;;;;;;2.44;82.05;99844.22;5066166;28;20049;-60
2022/03/26 09:19:49;;;;;;;16.92;11.00;;;;;;;2.47;82.03;99849.41;5068425;28;20082;-60
2022/03/26 09:22:19;;;;;;;19.55;12.25;;;;;;;2.42;82.08;99833.03;5071488;28;20380;-60
2022/03/26 09:24:52;;;;;;;19.48;10.93;;;;;;;2.29;81.78;99823.44;5057597;28;20056;-60
2022/03/26 09:27:23;;;;;;;19.38;12.07;;;;;;;2.23;82.15;99816.50;5057876;28;20221;-60
2022/03/26 09:29:54;;;;;;;15.02;9.30;;;;;;;2.16;82.37;99807.84;5057464;28;20341;-60
2022/03/26 09:32:24;;;;;;;15.25;9.40;;;;;;;2.01;82.44;99810.25;5066264;28;20215;-60
2022/03/26 09:34:55;;;;;;;17.65;10.63;;;;;;;1.88;82.78;99801.53;5076267;28;20059;-60
2022/03/26 09:37:26;;;;;;;18.52;11.45;;;;;;;1.72;83.23;99800.50;5074206;28;20286;-60
2022/03/26 09:39:58;;;;;;;32.90;17.23;;;;;;;1.56;83.68;99796.00;5076445;28;20236;-60
2022/03/26 09:42:29;;;;;;;37.10;21.10;;;;;;;1.49;84.71;99786.47;5074131;28;20347;-60
2022/03/26 09:44:59;;;;;;;39.42;22.13;;;;;;;1.41;85.05;99757.19;5076424;28;20052;-59
2022/03/26 09:47:30;;;;;;;43.20;22.33;;;;;;;1.50;84.98;99767.63;5077177;28;20052;-59
2022/03/26 09:50:01;;;;;;;46.95;25.27;;;;;;;1.45;85.18;99769.25;5077336;28;20080;-59
2022/03/26 09:52:32;;;;;;;56.35;30.92;;;;;;;1.37;85.36;99765.72;5077324;28;20048;-58
2022/03/26 09:55:11;;;;;;;57.20;34.53;;;;;;;1.36;85.44;99764.00;5075175;28;20042;-59
2022/03/26 09:57:42;;;;;;;41.08;22.52;;;;;;;0.53;85.57;99600.84;5071274;28;20079;-59
2022/03/26 10:00:15;;;;;;;40.38;18.85;;;;;;;1.42;85.68;99733.16;5065116;28;20346;-59
2022/03/26 10:02:46;;;;;;;20.05;11.82;;;;;;;1.33;86.09;99717.63;5067551;28;20124;-59
2022/03/26 10:05:20;;;;;;;23.33;10.95;;;;;;;1.27;86.12;99714.13;5067017;28;20262;-59
2022/03/26 10:07:51;;;;;;;16.13;10.32;;;;;;;1.18;86.50;99685.69;5069946;28;20056;-59
2022/03/26 10:10:26;;;;;;;18.05;10.43;;;;;;;1.34;86.46;99693.59;5071462;28;20329;-59
2022/03/26 10:12:57;;;;;;;14.85;10.00;;;;;;;1.38;86.84;99695.38;5071000;28;20051;-59
2022/03/26 10:15:28;;;;;;;15.32;9.05;;;;;;;1.32;86.71;99690.13;5070275;28;20228;-59
2022/03/26 10:18:10;;;;;;;29.27;10.07;;;;;;;1.24;86.86;99678.03;5068716;28;20060;-59
2022/03/26 10:20:41;;;;;;;336.25;13.35;;;;;;;0.93;86.07;99681.09;5071624;28;20057;-59
2022/03/26 10:23:12;;;;;;;141.90;9.48;;;;;;;0.65;86.55;99680.72;5076216;28;20247;-60
2022/03/26 10:25:44;;;;;;;409.25;16.65;;;;;;;0.49;86.82;99663.34;5068915;28;20056;-59
2022/03/26 10:28:24;;;;;;;306.25;14.38;;;;;;;0.37;87.26;99659.72;5070783;28;20044;-60
2022/03/26 10:34:09;;;;;;;364.73;25.63;;;;;;;0.24;87.63;99646.69;5080831;28;20098;-59
2022/03/26 10:36:41;;;;;;;313.85;24.80;;;;;;;0.25;88.29;99654.44;5078925;28;20334;-59
2022/03/26 10:39:17;;;;;;;427.83;27.77;;;;;;;0.29;88.05;99645.91;5076121;28;20307;-58
2022/03/26 10:41:52;;;;;;;469.33;27.10;;;;;;;0.27;88.13;99646.72;5068626;28;20119;-59
2022/03/26 10:44:26;;;;;;;108.95;18.90;;;;;;;0.07;88.17;99623.28;5069337;28;20062;-58
2022/03/26 10:46:58;;;;;;;589.70;32.10;;;;;;;0.28;88.26;99639.06;5070282;28;20326;-58
2022/03/26 10:49:30;;;;;;;604.17;26.33;;;;;;;0.11;88.14;99636.22;5074889;28;20099;-58
2022/03/26 10:52:07;;;;;;;581.83;28.00;;;;;;;0.02;88.39;99624.94;5076083;28;20382;-59
2022/03/26 10:54:38;;;;;;;408.58;23.50;;;;;;;-0.36;88.50;99555.84;5075243;28;20068;-58
2022/03/26 10:57:11;;;;;;;46.70;13.75;;;;;;;-0.04;88.36;99600.88;5075184;28;20119;-58
2022/03/26 10:59:41;;;;;;;57.00;13.77;;;;;;;-0.05;88.58;99593.13;5074483;28;20062;-58
2022/03/26 11:02:12;;;;;;;282.85;19.00;;;;;;;-0.01;88.63;99588.06;5078262;28;20116;-58
2022/03/26 11:04:43;;;;;;;165.32;16.55;;;;;;;-0.03;88.49;99587.19;5078212;28;20055;-58
2022/03/26 11:07:14;;;;;;;64.88;11.80;;;;;;;-0.10;88.71;99580.25;5077913;28;20041;-58
2022/03/26 11:09:50;;;;;;;88.93;12.57;;;;;;;-0.14;88.53;99573.34;5077607;28;20048;-59
2022/03/26 11:12:23;;;;;;;58.13;11.98;;;;;;;-0.17;88.49;99565.59;5072391;28;20120;-59
2022/03/26 11:14:56;;;;;;;31.67;9.52;;;;;;;-0.22;88.67;99554.38;5069941;28;20350;-58
2022/03/26 11:17:37;;;;;;;13.45;7.80;;;;;;;-0.30;88.83;99550.81;5069741;28;20041;-58
2022/03/26 11:20:28;;;;;;;22.40;7.75;;;;;;;-0.32;88.78;99547.38;5069276;28;20335;-58
2022/03/26 11:23:17;;;;;;;10.68;6.88;;;;;;;-0.74;88.93;99486.81;5070431;28;20292;-58
2022/03/26 11:26:08;;;;;;;14.50;5.63;;;;;;;-0.54;88.92;99530.75;5065630;28;20074;-58
2022/03/26 11:28:58;;;;;;;29.42;5.28;;;;;;;-0.66;88.96;99533.97;5075786;28;20075;-58
2022/03/26 11:31:36;;;;;;;12.13;5.68;;;;;;;-0.71;89.30;99522.78;5059975;28;20063;-58
2022/03/26 11:34:10;;;;;;;13.07;4.93;;;;;;;-0.79;89.50;99507.25;5059630;28;20082;-58
2022/03/26 11:36:41;;;;;;;9.10;4.88;;;;;;;-0.71;89.53;99502.25;5059369;28;20061;-58
2022/03/26 11:39:13;;;;;;;13.15;5.13;;;;;;;-1.15;89.38;99417.72;5059422;28;20087;-58
2022/03/26 11:41:45;;;;;;;16.73;4.68;;;;;;;-0.75;89.91;99474.81;5061989;28;20156;-58
2022/03/26 11:44:22;;;;;;;11.55;4.50;;;;;;;-0.83;89.33;99471.25;5078319;28;20478;-58
2022/03/26 11:52:33;;;;;;;19.45;5.32;;;;;;;-1.63;89.66;99347.69;5078406;28;20236;-58